Johannesburg, South Africa

1:55 PM SAST on September 01, 2014 (GMT +0200)
IGAUTENG101 | Change Station
CLOSE
Current Station
Personal Weather Station
Location: Boksburg, GAUTENG
Elevation: 5466 ft
Nearby Weather Stations

Elev 5466 ft 26.16 °S, 28.28 °E | Updated 9 seconds ago

Clear
Clear
69.3 °F
Feels Like 69.3 °F
N
3.2
Wind Variable Wind from SSE
Gusts 9.2 mph

Today
High -- | Low -- °F
--% Chance of Precip.
Yesterday
High -- | Low -- °F
Precip. -- in
6:19 AM 5:54 PM
Waxing Crescent, 40% visible
Pressure 30.45 in
Visibility -9999.0 miles
Clouds
Dew Point 35 °F
Humidity 28%
Rainfall 0.00 in
Snow Depth Not available.
UV 0.0 out of 12
Pollen Not available.
Air Quality Not available.
Flu Activity Not available.
METAR FAOR 011100Z 13009KT 080V180 CAVOK 18/M05 Q1031 NOSIG

More Conditions Fewer Conditions

Pressure 30.45 in
Visibility -9999.0 miles
Clouds
Dew Point 35 °F
Humidity 28%
Rainfall 0.00 in
Snow Depth Not available.
UV 0.0 out of 12
Pollen Not available.
Air Quality Not available.
Flu Activity Not available.
METAR FAOR 011100Z 13009KT 080V180 CAVOK 18/M05 Q1031 NOSIG

More Conditions Fewer Conditions

10-Day Weather Forecast

Almanac

Astronomy

Sep. 01, 2014 Rise Set
Actual Time 6:19 AM SAST 5:54 PM SAST
Civil Twilight 5:56 AM SAST 6:17 PM SAST
Nautical Twilight 5:29 AM SAST 6:44 PM SAST
Astronomical Twilight 5:03 AM SAST 7:11 PM SAST
Moon 10:28 AM SAST No Moon Set
Length of Visible Light 12h 21m
Length of Day
11h 34m
Tomorrow will be 1m 27s longer.
Waxing Crescent, 40% of the Moon is Illuminated
Today
Waxing Crescent
Sep 2
First Quarter
Sep 8
Full
Sep 15
Last Quarter
Sep 24
New

Yesterday's Extremes

Country Highs Country Lows

Community

WunderPhotos

Upload Photos

1,749,192 photos uploaded!

Nearby

Snow Depth

Not available.

Earthquake Activity

City Distance Mag. Time & Date
No recent earthquake activity has been reported nearby.
Minimum magnitude displayed is 2.5.

Coastal Water Temperatures

Place Temperature
No Stations Reporting

Nearby Weather Stations